createdAt,value
2022-09-04T00:00:08.702Z,100968.97
2022-09-04T00:01:26.087Z,100978.06
2022-09-04T00:02:47.096Z,100980.94
2022-09-04T00:03:59.166Z,100973.03
2022-09-04T00:05:06.136Z,100990.06
2022-09-04T00:06:14.534Z,100975.09
2022-09-04T00:07:24.339Z,100986.69
2022-09-04T00:08:42.723Z,100986.88
2022-09-04T00:09:53.894Z,100994.97
2022-09-04T00:11:00.572Z,100983.34
2022-09-04T00:12:06.430Z,100988.72
2022-09-04T00:13:13.396Z,100993.28
2022-09-04T00:14:18.528Z,100993.28
2022-09-04T00:15:25.047Z,100998.66
2022-09-04T00:16:34.403Z,100993.47
2022-09-04T00:17:42.653Z,100995.31
2022-09-04T00:18:52.122Z,100995.31
2022-09-04T00:19:59.558Z,100994.47
2022-09-04T00:21:07.210Z,100994.47
2022-09-04T00:22:25.910Z,100993.63
2022-09-04T00:23:35.416Z,100993.63
2022-09-04T00:24:41.732Z,100998.19
2022-09-04T00:25:53.382Z,100998.38
2022-09-04T00:27:02.354Z,101001.06
2022-09-04T00:28:09.492Z,100999.38
2022-09-04T00:29:21.275Z,101010.16
2022-09-04T00:30:23.695Z,101010.16
2022-09-04T00:31:33.971Z,101005.78
2022-09-04T00:32:41.470Z,101011.16
2022-09-04T00:33:51.902Z,101011.38
2022-09-04T00:35:10.441Z,101009.50
2022-09-04T00:36:14.569Z,101010.53
2022-09-04T00:37:23.042Z,101015.91
2022-09-04T00:38:37.581Z,101010.88
2022-09-04T00:39:46.715Z,101017.28
2022-09-04T00:40:58.736Z,101013.75
2022-09-04T00:42:14.504Z,101006.50
2022-09-04T00:43:50.363Z,101005.66
2022-09-04T00:45:05.322Z,101009.38
2022-09-04T00:46:31.010Z,101006.84
2022-09-04T00:48:13.043Z,101013.25
2022-09-04T00:49:36.427Z,101013.44
2022-09-04T00:50:57.221Z,101016.31
2022-09-04T00:52:11.964Z,101013.63
2022-09-04T00:53:32.699Z,101021.03
2022-09-04T00:54:48.808Z,101019.34
2022-09-04T00:56:03.121Z,101022.91
2022-09-04T00:57:43.240Z,101017.69
2022-09-04T00:59:06.086Z,101022.25
2022-09-04T01:00:10.416Z,101020.41
2022-09-04T01:01:22.321Z,101018.88
2022-09-04T01:02:38.167Z,101024.25
2022-09-04T01:03:52.639Z,101020.75
2022-09-04T01:05:03.226Z,101021.91
2022-09-04T01:06:32.709Z,101020.91
2022-09-04T01:07:49.467Z,101024.59
2022-09-04T01:09:13.340Z,101022.09
2022-09-04T01:10:41.758Z,101026.66
2022-09-04T01:11:53.704Z,101029.50
2022-09-04T01:13:04.712Z,101024.13
2022-09-04T01:14:14.644Z,101027.84
2022-09-04T01:15:25.526Z,101027.84
2022-09-04T01:16:34.059Z,101030.53
2022-09-04T01:17:43.017Z,101036.94
2022-09-04T01:18:53.157Z,101035.09
2022-09-04T01:20:03.734Z,101036.94
2022-09-04T01:21:35.304Z,101036.94
2022-09-04T01:22:53.840Z,101036.09
2022-09-04T01:24:20.070Z,101040.63
2022-09-04T01:25:34.728Z,101035.44
2022-09-04T01:26:47.765Z,101036.44
2022-09-04T01:27:54.678Z,101034.75
2022-09-04T01:29:11.482Z,101041.00
2022-09-04T01:30:16.545Z,101043.88
2022-09-04T01:31:28.058Z,101040.34
2022-09-04T01:32:51.925Z,101045.72
2022-09-04T01:34:05.664Z,101044.03
2022-09-04T01:35:20.302Z,101046.72
2022-09-04T01:36:41.198Z,101051.25
2022-09-04T01:37:53.915Z,101051.25
2022-09-04T01:38:58.584Z,101046.06
2022-09-04T01:40:16.842Z,101046.06
2022-09-04T01:41:23.355Z,101052.47
2022-09-04T01:42:35.715Z,101052.47
2022-09-04T01:43:37.475Z,101050.78
2022-09-04T01:44:40.839Z,101054.16
2022-09-04T01:46:11.932Z,101048.94
2022-09-04T01:47:22.358Z,101052.47
2022-09-04T01:48:37.103Z,101052.66
2022-09-04T01:49:46.243Z,101061.53
2022-09-04T01:50:52.601Z,101056.16
2022-09-04T01:52:06.416Z,101058.19
2022-09-04T01:53:12.790Z,101053.81
2022-09-04T01:54:35.233Z,101054.84
2022-09-04T01:55:44.871Z,101058.56
2022-09-04T01:57:04.391Z,101049.81
2022-09-04T01:58:17.412Z,101056.22
2022-09-04T01:59:27.795Z,101053.53
2022-09-04T02:00:35.436Z,101060.88
2022-09-04T02:01:47.501Z,101060.88
2022-09-04T02:02:57.345Z,101060.88
2022-09-04T02:04:08.172Z,101060.06
2022-09-04T02:05:19.867Z,101059.38
2022-09-04T02:06:30.697Z,101052.00
2022-09-04T02:07:37.304Z,101060.22
2022-09-04T02:08:56.894Z,101054.00
2022-09-04T02:10:08.286Z,101055.84
2022-09-04T02:11:16.302Z,101064.94
2022-09-04T02:12:31.025Z,101067.66
2022-09-04T02:13:44.916Z,101074.03
2022-09-04T02:14:56.911Z,101068.00
2022-09-04T02:16:11.110Z,101070.69
2022-09-04T02:17:18.555Z,101070.69
2022-09-04T02:18:33.908Z,101072.53
2022-09-04T02:19:47.680Z,101070.69
2022-09-04T02:20:56.560Z,101063.63
2022-09-04T02:22:07.772Z,101069.16
2022-09-04T02:23:18.245Z,101071.03
2022-09-04T02:24:29.767Z,101075.72
2022-09-04T02:25:36.193Z,101078.41
2022-09-04T02:26:46.890Z,101076.72
2022-09-04T02:27:56.207Z,101082.31
2022-09-04T02:29:09.515Z,101078.78
2022-09-04T02:30:13.952Z,101080.47
2022-09-04T02:31:22.411Z,101081.47
2022-09-04T02:32:30.945Z,101082.47
2022-09-04T02:33:39.449Z,101090.53
2022-09-04T02:34:46.861Z,101079.97
2022-09-04T02:35:58.489Z,101081.16
2022-09-04T02:37:06.409Z,101093.56
2022-09-04T02:38:19.413Z,101084.84
2022-09-04T02:39:33.902Z,101089.38
2022-09-04T02:40:47.488Z,101091.22
2022-09-04T02:42:03.752Z,101090.38
2022-09-04T02:43:19.614Z,101089.56
2022-09-04T02:44:34.384Z,101092.25
2022-09-04T02:45:44.816Z,101087.88
2022-09-04T02:47:02.758Z,101096.97
2022-09-04T02:48:13.931Z,101088.88
2022-09-04T02:49:25.715Z,101095.28
2022-09-04T02:50:46.187Z,101092.75
2022-09-04T02:52:01.759Z,101090.06
2022-09-04T02:53:18.386Z,101093.75
2022-09-04T02:54:40.116Z,101096.66
2022-09-04T02:55:56.384Z,101093.25
2022-09-04T02:57:09.834Z,101093.25
2022-09-04T02:58:19.724Z,101089.91
2022-09-04T02:59:36.269Z,101093.63
2022-09-04T03:00:46.273Z,101093.63
2022-09-04T03:01:54.192Z,101090.25
2022-09-04T03:03:03.505Z,101093.63
2022-09-04T03:04:14.165Z,101093.81
2022-09-04T03:05:20.779Z,101091.25
2022-09-04T03:06:33.040Z,101087.72
2022-09-04T03:07:37.345Z,101088.56
2022-09-04T03:08:47.030Z,101086.06
2022-09-04T03:09:55.203Z,101092.25
2022-09-04T03:11:03.785Z,101096.00
2022-09-04T03:12:26.583Z,101088.75
2022-09-04T03:13:33.380Z,101088.06
2022-09-04T03:14:45.311Z,101085.56
2022-09-04T03:15:55.205Z,101087.22
2022-09-04T03:17:03.383Z,101084.88
2022-09-04T03:18:16.820Z,101091.94
2022-09-04T03:19:23.446Z,101092.94
2022-09-04T03:20:29.255Z,101099.19
2022-09-04T03:21:40.666Z,101093.78
2022-09-04T03:22:49.459Z,101102.91
2022-09-04T03:23:55.695Z,101092.13
2022-09-04T03:25:12.978Z,101102.91
2022-09-04T03:26:24.727Z,101094.97
2022-09-04T03:27:28.466Z,101102.41
2022-09-04T03:28:40.629Z,101097.00
2022-09-04T03:29:53.610Z,101106.09
2022-09-04T03:30:58.302Z,101100.72
2022-09-04T03:32:17.178Z,101100.72
2022-09-04T03:33:29.617Z,101105.25
2022-09-04T03:34:45.707Z,101104.41
2022-09-04T03:35:55.394Z,101098.16
2022-09-04T03:37:13.393Z,101101.91
2022-09-04T03:38:23.965Z,101100.19
2022-09-04T03:39:35.781Z,101099.34
2022-09-04T03:40:42.894Z,101097.66
2022-09-04T03:41:55.366Z,101103.03
2022-09-04T03:43:11.283Z,101105.91
2022-09-04T03:44:24.410Z,101105.91
2022-09-04T03:45:39.019Z,101110.47
2022-09-04T03:46:52.882Z,101114.00
2022-09-04T03:48:10.010Z,101101.72
2022-09-04T03:49:22.451Z,101114.16
2022-09-04T03:50:32.636Z,101116.03
2022-09-04T03:51:43.924Z,101116.03
2022-09-04T03:52:57.578Z,101112.50
2022-09-04T03:54:07.953Z,101115.19
2022-09-04T03:55:25.627Z,101116.19
2022-09-04T03:56:39.774Z,101119.88
2022-09-04T03:58:04.722Z,101123.59
2022-09-04T03:59:08.617Z,101115.66
2022-09-04T04:00:18.147Z,101123.75
2022-09-04T04:01:31.143Z,101127.44
2022-09-04T04:02:48.203Z,101123.06
2022-09-04T04:04:05.460Z,101126.63
2022-09-04T04:05:29.092Z,101124.91
2022-09-04T04:06:38.207Z,101128.59
2022-09-04T04:07:50.176Z,101130.44
2022-09-04T04:09:11.780Z,101127.75
2022-09-04T04:10:24.976Z,101134.31
2022-09-04T04:11:55.603Z,101133.47
2022-09-04T04:13:19.314Z,101138.00
2022-09-04T04:14:46.105Z,101136.34
2022-09-04T04:16:04.232Z,101131.13
2022-09-04T04:17:23.732Z,101135.66
2022-09-04T04:18:40.531Z,101138.34
2022-09-04T04:19:53.131Z,101137.50
2022-09-04T04:21:07.199Z,101137.69
2022-09-04T04:22:33.275Z,101130.63
2022-09-04T04:24:07.585Z,101138.69
2022-09-04T04:25:25.144Z,101136.19
2022-09-04T04:26:40.681Z,101134.34
2022-09-04T04:27:55.973Z,101137.19
2022-09-04T04:29:16.287Z,101133.66
2022-09-04T04:30:18.747Z,101136.34
2022-09-04T04:31:29.177Z,101137.19
2022-09-04T04:32:54.057Z,101137.19
2022-09-04T04:34:06.726Z,101135.50
2022-09-04T04:35:25.085Z,101145.41
2022-09-04T04:36:36.683Z,101138.34
2022-09-04T04:37:51.908Z,101148.28
2022-09-04T04:39:15.431Z,101152.81
2022-09-04T04:40:32.682Z,101152.81
2022-09-04T04:42:07.751Z,101151.94
2022-09-04T04:43:17.498Z,101160.88
2022-09-04T04:44:48.165Z,101157.34
2022-09-04T04:45:57.025Z,101162.84
2022-09-04T04:47:11.475Z,101161.84
2022-09-04T04:48:52.942Z,101157.47
2022-09-04T04:50:08.182Z,101155.78
2022-09-04T04:51:23.087Z,101158.47
2022-09-04T04:52:40.844Z,101163.00
2022-09-04T04:53:52.096Z,101164.69
2022-09-04T04:55:16.447Z,101166.53
2022-09-04T04:56:26.378Z,101168.38
2022-09-04T04:57:36.690Z,101169.22
2022-09-04T04:58:58.793Z,101172.91
2022-09-04T05:00:08.841Z,101171.25
2022-09-04T05:01:26.236Z,101172.91
2022-09-04T05:02:32.045Z,101173.75
2022-09-04T05:03:46.001Z,101172.91
2022-09-04T05:04:54.844Z,101178.16
2022-09-04T05:06:07.011Z,101181.69
2022-09-04T05:07:19.633Z,101184.22
2022-09-04T05:08:36.773Z,101181.69
2022-09-04T05:09:47.880Z,101182.69
2022-09-04T05:10:56.027Z,101185.06
2022-09-04T05:12:03.405Z,101183.38
2022-09-04T05:13:19.007Z,101186.06
2022-09-04T05:14:33.406Z,101191.44
2022-09-04T05:15:58.449Z,101189.59
2022-09-04T05:17:14.926Z,101197.66
2022-09-04T05:18:23.055Z,101203.88
2022-09-04T05:19:33.577Z,101188.75
2022-09-04T05:20:42.659Z,101203.88
2022-09-04T05:21:54.600Z,101205.56
2022-09-04T05:23:06.580Z,101208.25
2022-09-04T05:24:17.355Z,101203.72
2022-09-04T05:25:25.652Z,101215.28
2022-09-04T05:26:34.406Z,101215.28
2022-09-04T05:27:54.067Z,101214.47
2022-09-04T05:29:03.038Z,101215.28
2022-09-04T05:30:10.423Z,101217.00
2022-09-04T05:31:21.931Z,101218.84
2022-09-04T05:32:29.058Z,101228.59
2022-09-04T05:33:39.513Z,101224.91
2022-09-04T05:35:02.056Z,101223.22
2022-09-04T05:36:12.528Z,101220.19
2022-09-04T05:37:22.159Z,101229.09
2022-09-04T05:38:37.124Z,101223.41
2022-09-04T05:39:54.631Z,101225.09
2022-09-04T05:41:07.050Z,101231.50
2022-09-04T05:42:23.921Z,101227.44
2022-09-04T05:43:40.832Z,101236.53
2022-09-04T05:44:58.189Z,101227.78
2022-09-04T05:46:08.372Z,101231.69
2022-09-04T05:47:27.503Z,101236.22
2022-09-04T05:48:43.508Z,101245.63
2022-09-04T05:50:08.317Z,101231.84
2022-09-04T05:51:45.083Z,101246.66
2022-09-04T05:53:19.179Z,101245.13
2022-09-04T05:54:39.148Z,101249.00
2022-09-04T05:56:09.511Z,101261.28
2022-09-04T05:57:21.968Z,101253.72
2022-09-04T05:58:50.116Z,101263.97
2022-09-04T06:00:12.588Z,101256.44
2022-09-04T06:01:30.265Z,101260.47
2022-09-04T06:03:05.780Z,101271.75
2022-09-04T06:04:47.285Z,101258.78
2022-09-04T06:06:07.480Z,101257.75
2022-09-04T06:07:18.225Z,101264.50
2022-09-04T06:08:33.414Z,101265.19
2022-09-04T06:09:51.821Z,101271.06
2022-09-04T06:11:09.313Z,101269.53
2022-09-04T06:12:26.470Z,101271.53
2022-09-04T06:13:59.298Z,101269.34
2022-09-04T06:15:20.926Z,101273.41
2022-09-04T06:16:37.273Z,101270.50
2022-09-04T06:18:06.802Z,101268.50
2022-09-04T06:19:28.950Z,101275.22
2022-09-04T06:20:59.145Z,101275.22
2022-09-04T06:22:15.268Z,101279.25
2022-09-04T06:23:43.842Z,101275.19
2022-09-04T06:25:13.572Z,101268.97
2022-09-04T06:26:41.187Z,101271.50
2022-09-04T06:28:04.293Z,101276.34
2022-09-04T06:29:18.173Z,101274.16
2022-09-04T06:30:20.021Z,101274.66
2022-09-04T06:31:47.972Z,101270.75
2022-09-04T06:33:14.107Z,101273.31
2022-09-04T06:34:25.722Z,101274.97
2022-09-04T06:35:44.496Z,101278.50
2022-09-04T06:36:59.942Z,101274.97
2022-09-04T06:38:28.373Z,101274.81
2022-09-04T06:39:47.274Z,101280.19
2022-09-04T06:41:08.689Z,101285.59
2022-09-04T06:42:36.615Z,101276.50
2022-09-04T06:43:44.385Z,101279.00
2022-09-04T06:45:09.731Z,101286.25
2022-09-04T06:46:21.516Z,101289.78
2022-09-04T06:47:33.751Z,101285.22
2022-09-04T06:48:47.324Z,101284.38
2022-09-04T06:50:07.255Z,101286.06
2022-09-04T06:51:32.331Z,101294.31
2022-09-04T06:52:45.825Z,101287.28
2022-09-04T06:54:00.253Z,101288.94
2022-09-04T06:55:13.635Z,101286.94
2022-09-04T06:56:42.486Z,101295.00
2022-09-04T06:58:09.007Z,101284.22
2022-09-04T06:59:44.417Z,101296.88
2022-09-04T07:00:53.363Z,101295.00
2022-09-04T07:02:08.132Z,101301.41
2022-09-04T07:03:45.933Z,101297.88
2022-09-04T07:04:59.698Z,101293.16
2022-09-04T07:06:11.278Z,101297.38
2022-09-04T07:07:23.045Z,101302.78
2022-09-04T07:08:39.475Z,101298.25
2022-09-04T07:09:46.364Z,101295.19
2022-09-04T07:11:00.501Z,101300.38
2022-09-04T07:12:33.801Z,101291.66
2022-09-04T07:14:07.762Z,101304.94
2022-09-04T07:15:29.116Z,101304.94
2022-09-04T07:16:38.915Z,101301.25
2022-09-04T07:17:46.504Z,101306.47
2022-09-04T07:19:38.403Z,101297.53
2022-09-04T07:20:56.601Z,101305.63
2022-09-04T07:22:11.660Z,101311.50
2022-09-04T07:23:25.658Z,101311.31
2022-09-04T07:24:48.369Z,101310.16
2022-09-04T07:26:02.411Z,101314.34
2022-09-04T07:27:12.130Z,101299.66
2022-09-04T07:28:49.404Z,101311.13
2022-09-04T07:30:00.816Z,101315.16
2022-09-04T07:31:09.310Z,101314.16
2022-09-04T07:32:18.866Z,101312.94
2022-09-04T07:33:31.767Z,101319.84
2022-09-04T07:34:42.811Z,101318.66
2022-09-04T07:35:51.558Z,101331.81
2022-09-04T07:36:59.125Z,101321.50
2022-09-04T07:38:09.617Z,101321.97
2022-09-04T07:39:19.132Z,101326.19
2022-09-04T07:40:28.050Z,101328.69
2022-09-04T07:41:40.494Z,101331.22
2022-09-04T07:42:49.440Z,101332.91
2022-09-04T07:44:03.750Z,101332.72
2022-09-04T07:45:16.490Z,101329.84
2022-09-04T07:46:26.381Z,101335.06
2022-09-04T07:47:35.246Z,101336.56
2022-09-04T07:48:44.191Z,101337.25
2022-09-04T07:50:00.681Z,101335.22
2022-09-04T07:51:10.512Z,101340.25
2022-09-04T07:52:22.684Z,101334.00
2022-09-04T07:53:35.839Z,101337.56
2022-09-04T07:54:58.547Z,101338.22
2022-09-04T07:56:06.565Z,101334.50
2022-09-04T07:57:32.892Z,101342.44
2022-09-04T07:59:20.388Z,101340.59
2022-09-04T08:00:23.543Z,101340.38
2022-09-04T08:01:42.297Z,101337.53
2022-09-04T08:03:25.524Z,101340.88
2022-09-04T08:05:02.467Z,101338.00
2022-09-04T08:06:18.296Z,101344.22
2022-09-04T08:07:30.203Z,101338.50
2022-09-04T08:08:56.009Z,101345.59
2022-09-04T08:10:13.547Z,101342.72
2022-09-04T08:11:32.273Z,101336.97
2022-09-04T08:12:56.255Z,101342.84
2022-09-04T08:14:17.098Z,101350.41
2022-09-04T08:15:21.964Z,101340.44
2022-09-04T08:16:31.082Z,101342.63
2022-09-04T08:17:49.141Z,101343.28
2022-09-04T08:19:06.880Z,101349.34
2022-09-04T08:20:19.509Z,101346.44
2022-09-04T08:21:28.835Z,101346.09
2022-09-04T08:22:42.507Z,101348.78
2022-09-04T08:24:11.763Z,101353.00
2022-09-04T08:25:26.884Z,101351.13
2022-09-04T08:26:39.129Z,101355.16
2022-09-04T08:27:54.319Z,101349.75
2022-09-04T08:29:33.333Z,101362.91
2022-09-04T08:30:41.272Z,101356.50
2022-09-04T08:31:53.909Z,101353.44
2022-09-04T08:33:25.642Z,101351.38
2022-09-04T08:34:46.179Z,101351.69
2022-09-04T08:35:55.335Z,101357.75
2022-09-04T08:37:10.573Z,101357.38
2022-09-04T08:38:29.056Z,101359.91
2022-09-04T08:39:41.725Z,101357.00
2022-09-04T08:41:21.326Z,101362.03
2022-09-04T08:42:59.096Z,101369.16
2022-09-04T08:44:43.771Z,101362.53
2022-09-04T08:46:29.896Z,101366.72
2022-09-04T08:48:08.022Z,101368.41
2022-09-04T08:49:55.159Z,101371.75
2022-09-04T08:51:34.738Z,101371.22
2022-09-04T08:53:13.694Z,101367.31
2022-09-04T08:54:48.870Z,101371.38
2022-09-04T08:55:59.592Z,101364.59
2022-09-04T08:57:24.072Z,101374.03
2022-09-04T08:59:05.276Z,101369.25
2022-09-04T09:00:12.471Z,101377.63
2022-09-04T09:01:51.654Z,101381.88
2022-09-04T09:03:37.829Z,101378.97
2022-09-04T09:05:17.370Z,101378.59
2022-09-04T09:06:52.229Z,101380.13
2022-09-04T09:08:11.654Z,101378.06
2022-09-04T09:10:04.883Z,101384.94
2022-09-04T09:11:43.535Z,101379.53
2022-09-04T09:13:12.723Z,101375.63
2022-09-04T09:14:53.034Z,101377.94
2022-09-04T09:16:19.784Z,101378.44
2022-09-04T09:17:38.366Z,101368.94
2022-09-04T09:18:56.376Z,101370.25
2022-09-04T09:20:01.342Z,101374.25
2022-09-04T09:21:08.355Z,101376.59
2022-09-04T09:22:24.748Z,101373.31
2022-09-04T09:23:38.694Z,101378.34
2022-09-04T09:25:01.267Z,101371.75
2022-09-04T09:26:28.327Z,101375.94
2022-09-04T09:28:11.329Z,101374.06
2022-09-04T09:29:33.962Z,101372.84
2022-09-04T09:30:58.777Z,101377.09
2022-09-04T09:32:40.027Z,101368.59
2022-09-04T09:34:14.909Z,101366.56
2022-09-04T09:35:59.201Z,101367.03
2022-09-04T09:37:37.460Z,101364.09
2022-09-04T09:39:21.576Z,101368.13
2022-09-04T09:40:39.672Z,101366.72
2022-09-04T09:42:28.329Z,101360.09
2022-09-04T09:44:12.730Z,101360.56
2022-09-04T09:45:35.869Z,101368.28
2022-09-04T09:47:05.115Z,101361.47
2022-09-04T09:48:41.902Z,101367.53
2022-09-04T09:50:03.615Z,101357.34
2022-09-04T09:51:46.310Z,101366.78
2022-09-04T09:53:25.631Z,101359.09
2022-09-04T09:55:04.339Z,101356.84
2022-09-04T09:56:42.788Z,101359.19
2022-09-04T09:58:24.869Z,101356.31
2022-09-04T09:59:59.528Z,101364.88
2022-09-04T10:01:15.180Z,101353.66
2022-09-04T10:02:42.384Z,101352.22
2022-09-04T10:04:34.449Z,101357.47
2022-09-04T10:06:03.045Z,101354.38
2022-09-04T10:07:45.217Z,101357.53
2022-09-04T10:09:26.142Z,101359.06
2022-09-04T10:10:54.003Z,101365.56
2022-09-04T10:12:20.000Z,101361.25
2022-09-04T10:13:50.195Z,101356.31
2022-09-04T10:15:17.990Z,101360.28
2022-09-04T10:17:03.534Z,101353.84
2022-09-04T10:18:33.352Z,101354.84
2022-09-04T10:20:04.962Z,101353.84
2022-09-04T10:21:49.528Z,101355.53
2022-09-04T10:23:37.250Z,101352.59
2022-09-04T10:25:10.803Z,101363.88
2022-09-04T10:26:44.281Z,101366.03
2022-09-04T10:28:19.921Z,101354.81
2022-09-04T10:29:56.371Z,101367.78
2022-09-04T10:31:27.781Z,101361.56
2022-09-04T10:33:07.953Z,101361.19
2022-09-04T10:34:28.957Z,101353.69
2022-09-04T10:35:43.749Z,101356.66
2022-09-04T10:36:54.063Z,101358.97
2022-09-04T10:38:19.510Z,101352.09
2022-09-04T10:39:50.647Z,101359.03
2022-09-04T10:41:17.100Z,101360.06
2022-09-04T10:42:33.690Z,101357.56
2022-09-04T10:43:57.981Z,101362.47
2022-09-04T10:45:16.925Z,101362.72
2022-09-04T10:46:26.191Z,101363.13
2022-09-04T10:47:51.212Z,101355.66
2022-09-04T10:49:18.968Z,101358.38
2022-09-04T10:50:30.268Z,101357.13
2022-09-04T10:52:08.792Z,101360.47
2022-09-04T10:53:38.753Z,101358.19
2022-09-04T10:55:10.157Z,101352.78
2022-09-04T10:56:23.293Z,101363.44
2022-09-04T10:57:42.000Z,101366.59
2022-09-04T10:59:04.093Z,101364.50
2022-09-04T11:00:08.816Z,101361.22
2022-09-04T11:01:37.551Z,101355.38
2022-09-04T11:03:13.745Z,101363.31
2022-09-04T11:04:37.601Z,101358.31
2022-09-04T11:05:54.065Z,101354.00
2022-09-04T11:07:46.909Z,101352.94
2022-09-04T11:09:30.491Z,101355.47
2022-09-04T11:10:56.504Z,101358.41
2022-09-04T11:12:11.413Z,101357.59
2022-09-04T11:14:03.622Z,101355.13
2022-09-04T11:15:45.090Z,101358.94
2022-09-04T11:17:09.304Z,101356.69
2022-09-04T11:18:26.850Z,101357.38
2022-09-04T11:20:18.528Z,101351.31
2022-09-04T11:21:57.024Z,101359.47
2022-09-04T11:23:32.625Z,101349.47
2022-09-04T11:25:09.332Z,101345.31
2022-09-04T11:27:06.050Z,101352.41
2022-09-04T11:28:47.242Z,101345.94
2022-09-04T11:30:03.369Z,101352.44
2022-09-04T11:31:25.322Z,101338.66
2022-09-04T11:32:55.984Z,101351.63
2022-09-04T11:34:41.646Z,101350.38
2022-09-04T11:36:18.824Z,101349.53
2022-09-04T11:38:00.852Z,101349.31
2022-09-04T11:39:39.381Z,101348.06
2022-09-04T11:41:28.038Z,101343.06
2022-09-04T11:42:41.333Z,101335.53
2022-09-04T11:44:22.201Z,101341.16
2022-09-04T11:46:10.880Z,101341.81
2022-09-04T11:47:42.282Z,101347.47
2022-09-04T11:49:09.900Z,101347.72
2022-09-04T11:50:20.464Z,101346.66
2022-09-04T11:51:44.931Z,101346.66
2022-09-04T11:53:14.937Z,101344.19
2022-09-04T11:54:51.737Z,101346.69
2022-09-04T11:56:13.705Z,101342.09
2022-09-04T11:57:30.135Z,101351.50
2022-09-04T11:59:04.884Z,101336.22
2022-09-04T12:00:13.329Z,101343.34
2022-09-04T12:01:32.894Z,101341.66
2022-09-04T12:03:00.954Z,101338.94
2022-09-04T12:04:25.821Z,101336.44
2022-09-04T12:05:45.618Z,101337.91
2022-09-04T12:07:05.575Z,101338.31
2022-09-04T12:08:29.470Z,101345.44
2022-09-04T12:10:02.183Z,101340.84
2022-09-04T12:11:21.951Z,101345.22
2022-09-04T12:12:57.144Z,101348.59
2022-09-04T12:14:17.363Z,101345.44
2022-09-04T12:15:44.442Z,101344.19
2022-09-04T12:17:40.723Z,101348.78
2022-09-04T12:19:24.033Z,101345.03
2022-09-04T12:21:03.006Z,101348.38
2022-09-04T12:22:31.082Z,101342.31
2022-09-04T12:23:50.583Z,101347.53
2022-09-04T12:25:23.625Z,101347.13
2022-09-04T12:27:13.818Z,101345.88
2022-09-04T12:28:53.224Z,101346.25
2022-09-04T12:30:15.777Z,101350.88
2022-09-04T12:31:42.356Z,101349.19
2022-09-04T12:33:16.315Z,101353.75
2022-09-04T12:34:40.759Z,101352.06
2022-09-04T12:36:17.762Z,101347.66
2022-09-04T12:37:57.966Z,101344.72
2022-09-04T12:39:16.080Z,101353.75
2022-09-04T12:40:45.164Z,101350.78
2022-09-04T12:41:57.537Z,101340.25
2022-09-04T12:43:16.276Z,101351.53
2022-09-04T12:44:27.205Z,101344.78
2022-09-04T12:45:43.206Z,101337.63
2022-09-04T12:47:14.019Z,101341.81
2022-09-04T12:48:26.207Z,101350.19
2022-09-04T12:49:49.360Z,101338.84
2022-09-04T12:50:59.786Z,101352.19
2022-09-04T12:52:17.375Z,101338.78
2022-09-04T12:53:49.306Z,101353.44
2022-09-04T12:55:05.135Z,101345.66
2022-09-04T12:56:13.567Z,101343.75
2022-09-04T12:57:30.281Z,101342.47
2022-09-04T12:58:52.305Z,101347.72
2022-09-04T13:00:07.059Z,101346.44
2022-09-04T13:01:21.038Z,101342.44
2022-09-04T13:02:34.486Z,101346.16
2022-09-04T13:03:42.838Z,101343.38
2022-09-04T13:04:57.406Z,101348.19
2022-09-04T13:06:09.248Z,101349.88
2022-09-04T13:07:28.011Z,101343.56
2022-09-04T13:08:45.543Z,101341.03
2022-09-04T13:09:55.214Z,101344.41
2022-09-04T13:11:09.644Z,101346.91
2022-09-04T13:12:22.207Z,101347.13
2022-09-04T13:13:35.820Z,101354.47
2022-09-04T13:14:59.919Z,101348.63
2022-09-04T13:16:10.126Z,101352.19
2022-09-04T13:17:19.754Z,101344.84
2022-09-04T13:18:44.748Z,101348.63
2022-09-04T13:20:00.464Z,101352.41
2022-09-04T13:21:16.001Z,101345.72
2022-09-04T13:22:28.180Z,101342.38
2022-09-04T13:23:48.744Z,101341.16
2022-09-04T13:25:02.333Z,101341.16
2022-09-04T13:26:24.352Z,101351.00
2022-09-04T13:27:43.918Z,101350.41
2022-09-04T13:28:57.082Z,101346.00
2022-09-04T13:30:07.098Z,101338.41
2022-09-04T13:31:40.946Z,101345.56
2022-09-04T13:32:56.758Z,101349.13
2022-09-04T13:34:11.086Z,101348.28
2022-09-04T13:35:24.933Z,101351.00
2022-09-04T13:36:38.721Z,101352.06
2022-09-04T13:37:56.528Z,101348.28
2022-09-04T13:39:33.095Z,101344.94
2022-09-04T13:41:00.716Z,101346.59
2022-09-04T13:42:35.826Z,101349.16
2022-09-04T13:43:59.458Z,101353.53
2022-09-04T13:45:07.488Z,101366.78
2022-09-04T13:46:14.611Z,101348.69
2022-09-04T13:47:22.936Z,101348.63
2022-09-04T13:48:41.609Z,101356.13
2022-09-04T13:49:49.322Z,101352.75
2022-09-04T13:50:56.740Z,101357.75
2022-09-04T13:52:04.126Z,101352.69
2022-09-04T13:53:16.235Z,101349.75
2022-09-04T13:54:22.560Z,101356.03
2022-09-04T13:55:28.372Z,101359.59
2022-09-04T13:56:34.225Z,101357.94
2022-09-04T13:57:42.568Z,101356.72
2022-09-04T13:58:51.118Z,101359.88
2022-09-04T13:59:59.042Z,101358.41
2022-09-04T14:01:07.079Z,101361.97
2022-09-04T14:02:12.540Z,101355.69
2022-09-04T14:03:27.119Z,101364.72
2022-09-04T14:04:34.715Z,101357.59
2022-09-04T14:05:38.464Z,101355.69
2022-09-04T14:06:40.462Z,101361.38
2022-09-04T14:07:45.993Z,101358.03
2022-09-04T14:09:05.054Z,101359.09
2022-09-04T14:10:14.598Z,101359.53
2022-09-04T14:11:40.444Z,101354.53
2022-09-04T14:13:06.428Z,101355.81
2022-09-04T14:14:45.893Z,101353.28
2022-09-04T14:16:04.166Z,101354.97
2022-09-04T14:17:07.104Z,101348.22
2022-09-04T14:18:23.129Z,101349.69
2022-09-04T14:19:42.480Z,101350.31
2022-09-04T14:20:57.975Z,101351.56
2022-09-04T14:22:17.226Z,101350.13
2022-09-04T14:23:24.323Z,101359.59
2022-09-04T14:24:34.704Z,101356.22
2022-09-04T14:25:50.859Z,101358.13
2022-09-04T14:26:57.869Z,101355.41
2022-09-04T14:28:04.419Z,101357.50
2022-09-04T14:29:21.246Z,101351.22
2022-09-04T14:30:25.226Z,101357.50
2022-09-04T14:31:35.110Z,101353.94
2022-09-04T14:32:57.810Z,101343.47
2022-09-04T14:34:07.407Z,101343.72
2022-09-04T14:35:19.044Z,101351.06
2022-09-04T14:36:35.322Z,101342.88
2022-09-04T14:38:07.342Z,101344.75
2022-09-04T14:39:18.087Z,101344.16
2022-09-04T14:40:29.276Z,101345.81
2022-09-04T14:41:44.671Z,101344.16
2022-09-04T14:42:57.993Z,101346.44
2022-09-04T14:44:13.904Z,101349.38
2022-09-04T14:45:33.302Z,101345.38
2022-09-04T14:46:50.806Z,101350.81
2022-09-04T14:47:57.531Z,101356.91
2022-09-04T14:49:02.958Z,101352.91
2022-09-04T14:50:09.581Z,101349.13
2022-09-04T14:51:17.089Z,101352.69
2022-09-04T14:52:23.914Z,101352.44
2022-09-04T14:53:31.761Z,101348.69
2022-09-04T14:54:43.532Z,101347.63
2022-09-04T14:56:13.104Z,101347.84
2022-09-04T14:57:23.761Z,101342.97
2022-09-04T14:58:33.450Z,101349.06